Time;durP1;ratioP1;P1;durP2;ratioP2;P2;SDS_P1;SDS_P2;PMS_P1;PMS_P2;Temp;Humidity;BMP_temperature;BMP_pressure;BME280_temperature;BME280_humidity;BME280_pressure;Samples;Min_cycle;Max_cycle;Signal;HPM_P1;HPM_P2
2022/01/15 00:01:26;;;;;;;19.98;11.45;;;;;;;;;;5025845;28;20326;-75
2022/01/15 00:03:51;;;;;;;16.63;10.30;;;;;;;;;;5026455;28;20047;-70
2022/01/15 00:06:16;;;;;;;20.52;10.60;;;;;;;;;;5023238;28;20049;-70
2022/01/15 00:08:43;;;;;;;23.13;11.23;;;;;;;;;;5024286;28;20042;-69
2022/01/15 00:11:08;;;;;;;18.27;11.00;;;;;;;;;;5020675;28;20161;-69
2022/01/15 00:13:33;;;;;;;18.33;11.50;;;;;;;;;;5020320;28;20061;-69
2022/01/15 00:16:29;;;;;;;21.42;11.20;;;;;;;;;;5025136;28;20033;-69
2022/01/15 00:19:00;;;;;;;22.42;12.05;;;;;;;;;;5017188;28;20033;-74
2022/01/15 00:21:26;;;;;;;20.50;11.15;;;;;;;;;;5024153;28;20060;-74
2022/01/15 00:23:51;;;;;;;20.63;11.70;;;;;;;;;;5028527;28;20072;-74
2022/01/15 00:26:17;;;;;;;20.70;11.88;;;;;;;;;;5021108;28;20038;-74
2022/01/15 00:28:42;;;;;;;19.27;11.70;;;;;;;;;;5016622;28;20021;-74
2022/01/15 00:31:07;;;;;;;20.80;11.83;;;;;;;;;;5022270;28;20045;-74
2022/01/15 00:33:32;;;;;;;18.50;11.75;;;;;;;;;;5020196;28;20018;-74
2022/01/15 00:35:58;;;;;;;18.63;10.75;;;;;;;;;;5020728;28;20480;-74
2022/01/15 00:38:23;;;;;;;24.77;12.35;;;;;;;;;;5022738;28;20037;-73
2022/01/15 00:40:48;;;;;;;26.23;14.63;;;;;;;;;;5025232;28;20152;-74
2022/01/15 00:43:14;;;;;;;21.55;11.93;;;;;;;;;;5022027;28;20029;-75
2022/01/15 00:45:39;;;;;;;23.80;12.87;;;;;;;;;;5018374;28;20076;-74
2022/01/15 00:48:04;;;;;;;20.93;11.83;;;;;;;;;;5026753;28;20040;-74
2022/01/15 00:50:30;;;;;;;25.50;13.70;;;;;;;;;;5017592;28;20029;-74
2022/01/15 00:52:55;;;;;;;20.33;11.82;;;;;;;;;;5030554;28;20083;-73
2022/01/15 00:55:20;;;;;;;19.77;11.70;;;;;;;;;;5026499;28;20034;-75
2022/01/15 00:57:46;;;;;;;22.57;13.13;;;;;;;;;;5023448;28;20121;-74
2022/01/15 01:00:13;;;;;;;21.50;12.37;;;;;;;;;;5029444;28;20030;-74
2022/01/15 01:02:39;;;;;;;23.10;12.90;;;;;;;;;;5021104;28;20128;-75
2022/01/15 01:05:04;;;;;;;21.93;12.73;;;;;;;;;;5023857;28;20112;-72
2022/01/15 01:07:29;;;;;;;19.35;11.65;;;;;;;;;;5023185;28;20033;-74
2022/01/15 01:10:07;;;;;;;22.73;12.57;;;;;;;;;;5023711;28;20034;-73
2022/01/15 01:13:07;;;;;;;21.30;11.77;;;;;;;;;;5028963;28;20029;-74
2022/01/15 01:23:21;;;;;;;19.73;11.43;;;;;;;;;;5025817;28;20862;-75
2022/01/15 01:25:49;;;;;;;19.30;11.47;;;;;;;;;;5026305;28;20029;-74
2022/01/15 01:28:24;;;;;;;21.85;11.93;;;;;;;;;;5029914;28;20017;-74
2022/01/15 01:30:59;;;;;;;22.20;12.33;;;;;;;;;;5030770;28;20042;-74
2022/01/15 01:36:04;;;;;;;23.48;14.05;;;;;;;;;;5027791;28;20040;-74
2022/01/15 01:38:35;;;;;;;22.67;12.90;;;;;;;;;;5030983;28;20713;-74
2022/01/15 01:41:01;;;;;;;21.15;12.20;;;;;;;;;;5030687;28;20044;-73
2022/01/15 01:48:36;;;;;;;22.90;11.90;;;;;;;;;;5024356;28;20171;-74
2022/01/15 01:51:01;;;;;;;18.92;11.05;;;;;;;;;;5026240;28;20121;-73
2022/01/15 01:53:27;;;;;;;21.10;12.30;;;;;;;;;;5028164;28;20115;-75
2022/01/15 01:55:52;;;;;;;19.10;12.20;;;;;;;;;;5023529;28;20026;-73
2022/01/15 01:58:17;;;;;;;22.47;11.77;;;;;;;;;;5024531;28;20109;-73
2022/01/15 02:00:42;;;;;;;23.27;13.47;;;;;;;;;;5023353;28;20022;-74
2022/01/15 02:03:07;;;;;;;22.17;12.20;;;;;;;;;;5024212;28;20033;-74
2022/01/15 02:05:33;;;;;;;19.60;11.50;;;;;;;;;;5027882;28;20393;-74
2022/01/15 02:07:58;;;;;;;20.95;11.43;;;;;;;;;;5023872;28;20152;-74
2022/01/15 02:10:23;;;;;;;19.33;11.25;;;;;;;;;;5020446;28;20325;-74
2022/01/15 02:12:50;;;;;;;21.70;11.33;;;;;;;;;;5024208;28;20038;-75
2022/01/15 02:15:17;;;;;;;21.17;12.07;;;;;;;;;;5023322;28;20028;-73
2022/01/15 02:17:43;;;;;;;21.03;11.93;;;;;;;;;;5023675;28;20081;-74
2022/01/15 02:20:22;;;;;;;21.60;12.07;;;;;;;;;;5023248;28;20700;-74
2022/01/15 02:25:42;;;;;;;21.90;12.57;;;;;;;;;;5027652;28;20036;-74
2022/01/15 02:28:07;;;;;;;19.87;11.37;;;;;;;;;;5029758;28;20037;-74
2022/01/15 02:30:33;;;;;;;18.83;11.57;;;;;;;;;;5024959;28;20487;-74
2022/01/15 02:32:58;;;;;;;21.77;12.07;;;;;;;;;;5029619;28;20037;-73
2022/01/15 02:35:23;;;;;;;18.53;11.00;;;;;;;;;;5027247;28;20032;-74
2022/01/15 02:37:49;;;;;;;20.33;11.50;;;;;;;;;;5027422;28;20118;-73
2022/01/15 02:40:14;;;;;;;19.73;10.93;;;;;;;;;;5027769;28;20032;-73
2022/01/15 02:42:39;;;;;;;25.30;12.57;;;;;;;;;;5019994;28;20112;-74
2022/01/15 02:45:08;;;;;;;20.03;11.83;;;;;;;;;;5026693;28;20044;-74
2022/01/15 02:50:17;;;;;;;22.13;12.50;;;;;;;;;;5015830;28;20384;-74
2022/01/15 02:52:42;;;;;;;19.80;11.37;;;;;;;;;;5026087;28;20030;-74
2022/01/15 02:55:07;;;;;;;21.57;11.60;;;;;;;;;;5021481;28;20032;-73
2022/01/15 02:57:32;;;;;;;19.90;11.23;;;;;;;;;;5026097;28;20374;-74
2022/01/15 02:59:58;;;;;;;18.57;10.93;;;;;;;;;;5026573;28;20044;-74
2022/01/15 03:02:23;;;;;;;19.47;11.77;;;;;;;;;;5024372;28;20380;-73
2022/01/15 03:04:48;;;;;;;18.63;11.00;;;;;;;;;;5016906;28;20112;-72
2022/01/15 03:07:13;;;;;;;18.90;10.77;;;;;;;;;;5022992;28;20220;-75
2022/01/15 03:09:40;;;;;;;19.47;10.53;;;;;;;;;;5024551;28;20045;-73
2022/01/15 03:12:06;;;;;;;19.60;10.87;;;;;;;;;;5026937;28;20025;-73
2022/01/15 03:14:31;;;;;;;18.90;10.93;;;;;;;;;;5025345;28;20044;-73
2022/01/15 03:16:57;;;;;;;20.57;11.77;;;;;;;;;;5023729;28;20033;-72
2022/01/15 03:19:22;;;;;;;20.53;11.83;;;;;;;;;;5021467;28;20148;-75
2022/01/15 03:21:47;;;;;;;21.67;12.33;;;;;;;;;;5018013;28;20022;-73
2022/01/15 03:24:12;;;;;;;19.73;10.60;;;;;;;;;;5027452;28;20485;-74
2022/01/15 03:26:37;;;;;;;19.17;10.97;;;;;;;;;;5021715;28;20048;-74
2022/01/15 03:29:03;;;;;;;22.23;12.27;;;;;;;;;;5025123;28;20124;-74
2022/01/15 03:31:28;;;;;;;20.57;12.10;;;;;;;;;;5022568;28;20030;-73
2022/01/15 03:33:53;;;;;;;23.87;11.97;;;;;;;;;;5025880;28;20036;-73
2022/01/15 03:36:18;;;;;;;22.57;11.93;;;;;;;;;;5026531;28;20029;-74
2022/01/15 03:38:43;;;;;;;24.17;12.77;;;;;;;;;;5023633;28;20030;-74
2022/01/15 03:41:09;;;;;;;21.87;12.07;;;;;;;;;;5022795;28;20017;-73
2022/01/15 03:43:35;;;;;;;21.73;12.50;;;;;;;;;;5020015;28;20022;-73
2022/01/15 03:46:00;;;;;;;22.50;12.10;;;;;;;;;;5025446;28;20433;-74
2022/01/15 03:48:25;;;;;;;20.13;11.77;;;;;;;;;;5023189;28;20057;-74
2022/01/15 03:50:51;;;;;;;20.80;11.80;;;;;;;;;;5020911;28;20029;-73
2022/01/15 03:53:16;;;;;;;22.97;12.33;;;;;;;;;;5031227;28;20026;-73
2022/01/15 03:55:41;;;;;;;22.37;12.40;;;;;;;;;;5022948;28;20021;-74
2022/01/15 03:58:07;;;;;;;19.70;10.83;;;;;;;;;;5027877;28;20319;-74
2022/01/15 04:00:32;;;;;;;23.27;12.47;;;;;;;;;;5029985;28;20479;-73
2022/01/15 04:02:58;;;;;;;21.60;12.57;;;;;;;;;;5023675;28;20029;-73
2022/01/15 04:05:23;;;;;;;22.83;12.53;;;;;;;;;;5023770;28;20116;-73
2022/01/15 04:07:49;;;;;;;21.50;12.03;;;;;;;;;;5026193;28;20504;-74
2022/01/15 04:10:15;;;;;;;20.53;11.07;;;;;;;;;;5020026;28;20037;-73
2022/01/15 04:12:40;;;;;;;23.40;11.67;;;;;;;;;;5023361;28;20029;-74
2022/01/15 04:15:06;;;;;;;24.30;12.43;;;;;;;;;;5019038;28;20102;-74
2022/01/15 04:17:31;;;;;;;23.43;11.73;;;;;;;;;;5026408;28;20033;-73
2022/01/15 04:19:58;;;;;;;22.73;12.23;;;;;;;;;;5026959;28;20021;-74
2022/01/15 04:22:23;;;;;;;18.77;10.90;;;;;;;;;;5026766;28;20029;-73
2022/01/15 04:24:48;;;;;;;21.33;10.93;;;;;;;;;;5025855;28;20018;-73
2022/01/15 04:27:13;;;;;;;21.10;11.53;;;;;;;;;;5020405;28;20314;-73
2022/01/15 04:29:39;;;;;;;21.23;11.37;;;;;;;;;;5020436;28;20040;-72
2022/01/15 04:32:04;;;;;;;23.20;12.33;;;;;;;;;;5026812;28;20029;-74
2022/01/15 04:34:30;;;;;;;22.03;11.70;;;;;;;;;;5020380;28;20104;-73
2022/01/15 04:37:00;;;;;;;19.97;11.00;;;;;;;;;;5025697;28;20048;-74
2022/01/15 04:39:26;;;;;;;20.53;11.90;;;;;;;;;;5026500;28;20028;-74
2022/01/15 04:41:51;;;;;;;20.47;11.20;;;;;;;;;;5028456;28;20029;-73
2022/01/15 04:44:16;;;;;;;18.50;10.57;;;;;;;;;;5032387;28;20555;-74
2022/01/15 04:46:41;;;;;;;18.37;10.13;;;;;;;;;;5030869;28;20110;-74
2022/01/15 04:49:07;;;;;;;22.23;11.47;;;;;;;;;;5032449;28;20333;-73
2022/01/15 04:51:33;;;;;;;19.20;10.77;;;;;;;;;;5031263;28;20450;-74
2022/01/15 04:53:58;;;;;;;21.40;10.60;;;;;;;;;;5028972;28;20790;-76
2022/01/15 04:56:23;;;;;;;19.77;11.43;;;;;;;;;;5025788;28;20031;-73
2022/01/15 04:58:49;;;;;;;21.33;10.83;;;;;;;;;;5027910;28;20120;-74
2022/01/15 05:01:14;;;;;;;19.07;11.47;;;;;;;;;;5025756;28;20056;-75
2022/01/15 05:03:39;;;;;;;17.67;10.27;;;;;;;;;;5031138;28;20029;-74
2022/01/15 05:06:05;;;;;;;18.23;10.50;;;;;;;;;;5024465;28;20464;-73
2022/01/15 05:08:30;;;;;;;18.23;10.10;;;;;;;;;;5029094;28;20405;-74
2022/01/15 05:10:59;;;;;;;19.60;10.20;;;;;;;;;;5021291;28;20378;-73
2022/01/15 05:13:28;;;;;;;19.60;10.50;;;;;;;;;;5028810;28;20030;-75
2022/01/15 05:15:53;;;;;;;16.85;11.10;;;;;;;;;;5030598;28;20083;-74
2022/01/15 05:18:18;;;;;;;19.00;11.53;;;;;;;;;;5023090;28;20424;-74
2022/01/15 05:20:45;;;;;;;21.53;10.77;;;;;;;;;;5024139;28;20476;-74
2022/01/15 05:23:10;;;;;;;17.83;10.10;;;;;;;;;;5021604;28;20065;-73
2022/01/15 05:25:36;;;;;;;19.20;10.07;;;;;;;;;;5026588;28;20461;-75
2022/01/15 05:28:01;;;;;;;19.17;11.23;;;;;;;;;;5029638;28;20033;-74
2022/01/15 05:30:30;;;;;;;19.97;11.03;;;;;;;;;;5029888;28;20044;-73
2022/01/15 05:32:55;;;;;;;20.13;10.30;;;;;;;;;;5036563;28;20427;-75
2022/01/15 05:35:25;;;;;;;18.70;10.10;;;;;;;;;;5024975;28;20105;-73
2022/01/15 05:37:51;;;;;;;18.63;10.23;;;;;;;;;;5028274;28;20029;-74
2022/01/15 05:40:16;;;;;;;20.13;10.73;;;;;;;;;;5028444;28;20032;-74
2022/01/15 05:42:41;;;;;;;19.07;11.37;;;;;;;;;;5025769;28;20397;-73
2022/01/15 05:45:07;;;;;;;21.47;11.10;;;;;;;;;;5031457;28;20024;-74
2022/01/15 05:47:32;;;;;;;19.93;10.33;;;;;;;;;;5028004;28;20049;-73
2022/01/15 05:49:57;;;;;;;20.23;10.77;;;;;;;;;;5017878;28;20033;-74
2022/01/15 05:52:22;;;;;;;20.23;11.20;;;;;;;;;;5034897;28;20033;-74
2022/01/15 05:54:47;;;;;;;17.43;10.17;;;;;;;;;;5028530;28;20143;-73
2022/01/15 05:57:12;;;;;;;18.87;10.73;;;;;;;;;;5028486;28;20041;-73
2022/01/15 05:59:38;;;;;;;21.53;11.17;;;;;;;;;;5024239;28;20526;-74
2022/01/15 06:02:03;;;;;;;21.53;10.67;;;;;;;;;;5028258;28;20029;-73
2022/01/15 06:04:28;;;;;;;18.93;10.50;;;;;;;;;;5024574;28;20029;-75
2022/01/15 06:06:54;;;;;;;18.77;10.47;;;;;;;;;;5023692;28;20099;-73
2022/01/15 06:09:19;;;;;;;18.03;10.33;;;;;;;;;;5026474;28;20037;-74
2022/01/15 06:11:44;;;;;;;18.63;10.47;;;;;;;;;;5026501;28;20028;-74
2022/01/15 06:14:09;;;;;;;18.33;10.33;;;;;;;;;;5023876;28;20068;-74
2022/01/15 06:16:34;;;;;;;19.50;10.50;;;;;;;;;;5020029;28;20033;-74
2022/01/15 06:19:00;;;;;;;17.10;9.93;;;;;;;;;;5023519;28;20492;-75
2022/01/15 06:21:25;;;;;;;20.13;10.43;;;;;;;;;;5019617;28;20025;-75
2022/01/15 06:23:50;;;;;;;16.23;9.43;;;;;;;;;;5025555;28;20030;-74
2022/01/15 06:26:15;;;;;;;17.33;10.20;;;;;;;;;;5023849;28;20116;-75
2022/01/15 06:28:40;;;;;;;20.33;10.90;;;;;;;;;;5023158;28;20497;-74
2022/01/15 06:31:06;;;;;;;17.83;10.40;;;;;;;;;;5018991;28;20090;-74
2022/01/15 06:33:31;;;;;;;21.23;11.80;;;;;;;;;;5017063;28;20032;-74
2022/01/15 06:35:56;;;;;;;20.97;12.37;;;;;;;;;;5022752;28;20076;-74
2022/01/15 06:38:22;;;;;;;21.23;12.23;;;;;;;;;;5023959;28;20029;-73
2022/01/15 06:40:47;;;;;;;21.53;12.80;;;;;;;;;;5017216;28;20032;-74
2022/01/15 06:43:12;;;;;;;22.83;12.90;;;;;;;;;;5019523;28;20435;-75
2022/01/15 06:45:38;;;;;;;22.17;13.37;;;;;;;;;;5021025;28;20020;-74
2022/01/15 06:48:03;;;;;;;23.50;13.00;;;;;;;;;;5021569;28;20040;-74
2022/01/15 06:50:29;;;;;;;19.53;12.13;;;;;;;;;;5015301;28;20477;-75
2022/01/15 06:52:54;;;;;;;25.37;13.70;;;;;;;;;;5022658;28;20037;-74
2022/01/15 06:55:20;;;;;;;24.93;13.67;;;;;;;;;;5024200;28;20021;-74
2022/01/15 06:57:45;;;;;;;22.80;12.97;;;;;;;;;;5022631;28;20021;-75
2022/01/15 07:00:11;;;;;;;22.70;13.43;;;;;;;;;;5020624;28;20013;-74
2022/01/15 07:02:37;;;;;;;23.43;13.13;;;;;;;;;;5016192;28;20036;-74
2022/01/15 07:05:03;;;;;;;20.67;13.40;;;;;;;;;;5029060;28;20025;-74
2022/01/15 07:07:28;;;;;;;25.67;13.63;;;;;;;;;;5022997;28;20049;-74
2022/01/15 07:09:53;;;;;;;24.70;14.37;;;;;;;;;;5020344;28;20033;-73
2022/01/15 07:12:18;;;;;;;26.83;14.80;;;;;;;;;;5028949;28;20473;-73
2022/01/15 07:14:44;;;;;;;28.20;15.30;;;;;;;;;;5029455;28;20025;-73
2022/01/15 07:17:10;;;;;;;30.27;15.33;;;;;;;;;;5027749;28;20108;-74
2022/01/15 07:19:35;;;;;;;37.13;17.57;;;;;;;;;;5028247;28;20417;-73
2022/01/15 07:22:00;;;;;;;27.07;16.20;;;;;;;;;;5027503;28;20041;-74
2022/01/15 07:24:26;;;;;;;28.17;16.23;;;;;;;;;;5028010;28;20029;-74
2022/01/15 07:26:51;;;;;;;43.07;20.23;;;;;;;;;;5024821;28;20568;-73
2022/01/15 07:29:16;;;;;;;45.83;23.00;;;;;;;;;;5029193;28;20026;-74
2022/01/15 07:31:42;;;;;;;52.70;23.20;;;;;;;;;;5024209;28;20055;-73
2022/01/15 07:34:08;;;;;;;46.23;21.70;;;;;;;;;;5029013;28;20056;-74
2022/01/15 07:36:33;;;;;;;56.03;24.07;;;;;;;;;;5021099;28;20532;-72
2022/01/15 07:38:58;;;;;;;46.73;21.23;;;;;;;;;;5022578;28;20033;-74
2022/01/15 07:41:24;;;;;;;48.50;22.17;;;;;;;;;;5022545;28;20563;-75
2022/01/15 07:43:49;;;;;;;49.93;23.20;;;;;;;;;;5021214;28;20029;-74
2022/01/15 07:46:14;;;;;;;56.23;24.67;;;;;;;;;;5026924;28;20038;-74
2022/01/15 07:48:39;;;;;;;68.63;25.60;;;;;;;;;;5020259;28;20112;-73
2022/01/15 07:51:05;;;;;;;62.00;23.70;;;;;;;;;;5028884;28;20022;-74
2022/01/15 07:53:30;;;;;;;53.50;23.73;;;;;;;;;;5021629;28;20030;-73
2022/01/15 07:55:55;;;;;;;44.90;21.73;;;;;;;;;;5020466;28;20038;-74
2022/01/15 07:58:20;;;;;;;64.87;23.57;;;;;;;;;;5024802;28;20025;-74
2022/01/15 08:00:46;;;;;;;66.87;22.73;;;;;;;;;;5024737;28;20104;-73
2022/01/15 08:03:11;;;;;;;114.60;26.73;;;;;;;;;;5021113;28;20133;-73
2022/01/15 08:05:36;;;;;;;60.83;24.67;;;;;;;;;;5027601;28;20463;-74
2022/01/15 08:08:02;;;;;;;54.03;24.20;;;;;;;;;;5028612;28;20120;-72
2022/01/15 08:10:27;;;;;;;47.40;22.70;;;;;;;;;;5023479;28;20025;-73
2022/01/15 08:12:52;;;;;;;48.80;21.20;;;;;;;;;;5021975;28;20037;-74
2022/01/15 08:15:18;;;;;;;44.80;22.00;;;;;;;;;;5020872;28;20213;-73
2022/01/15 08:17:44;;;;;;;45.10;23.47;;;;;;;;;;5018291;28;20025;-66
2022/01/15 08:20:09;;;;;;;56.33;25.87;;;;;;;;;;5023479;28;20025;-65
2022/01/15 08:22:34;;;;;;;68.27;23.93;;;;;;;;;;5026264;28;20056;-65
2022/01/15 08:25:00;;;;;;;43.90;22.43;;;;;;;;;;5020582;28;20049;-65
2022/01/15 08:27:25;;;;;;;48.10;23.30;;;;;;;;;;5020671;28;20052;-66
2022/01/15 08:29:50;;;;;;;41.37;21.73;;;;;;;;;;5019661;28;20025;-66
2022/01/15 08:32:15;;;;;;;45.63;23.00;;;;;;;;;;5029040;28;20455;-65
2022/01/15 08:34:42;;;;;;;42.13;23.07;;;;;;;;;;5033297;28;20131;-66
2022/01/15 08:37:08;;;;;;;41.87;21.73;;;;;;;;;;5026103;28;20149;-67
2022/01/15 08:39:35;;;;;;;45.20;23.47;;;;;;;;;;5022411;28;20471;-66
2022/01/15 08:42:00;;;;;;;40.70;22.33;;;;;;;;;;5027007;28;20091;-66
2022/01/15 08:44:25;;;;;;;45.17;23.87;;;;;;;;;;5026981;28;20030;-66
2022/01/15 08:46:51;;;;;;;40.53;23.73;;;;;;;;;;5025825;28;20046;-65
2022/01/15 08:49:17;;;;;;;45.57;23.27;;;;;;;;;;5027797;28;20025;-67
2022/01/15 08:51:42;;;;;;;36.93;21.10;;;;;;;;;;5021935;28;20426;-66
2022/01/15 08:54:07;;;;;;;34.67;19.57;;;;;;;;;;5024101;28;20049;-65
2022/01/15 08:56:33;;;;;;;33.73;19.47;;;;;;;;;;5019750;28;20159;-66
2022/01/15 08:58:58;;;;;;;33.60;19.97;;;;;;;;;;5021216;28;20033;-66
2022/01/15 09:01:23;;;;;;;34.47;19.67;;;;;;;;;;5022883;28;20026;-65
2022/01/15 09:03:48;;;;;;;37.40;20.83;;;;;;;;;;5018915;28;20026;-66
2022/01/15 09:06:13;;;;;;;31.50;19.27;;;;;;;;;;5019139;28;20469;-65
2022/01/15 09:08:39;;;;;;;34.67;20.35;;;;;;;;;;5024341;28;20649;-66
2022/01/15 09:11:05;;;;;;;33.75;19.67;;;;;;;;;;5024410;28;20034;-66
2022/01/15 09:13:30;;;;;;;32.63;18.02;;;;;;;;;;5024758;28;20026;-65
2022/01/15 09:15:56;;;;;;;40.13;21.53;;;;;;;;;;5021893;28;20036;-65
2022/01/15 09:18:21;;;;;;;30.67;19.58;;;;;;;;;;5023272;28;20510;-64
2022/01/15 09:20:46;;;;;;;32.00;19.30;;;;;;;;;;5027986;28;20040;-64
2022/01/15 09:23:12;;;;;;;31.17;18.15;;;;;;;;;;5022728;28;20061;-65
2022/01/15 09:25:37;;;;;;;32.90;19.17;;;;;;;;;;5024068;28;20101;-65
2022/01/15 09:30:46;;;;;;;31.87;18.87;;;;;;;;;;5027998;28;20044;-66
2022/01/15 09:33:11;;;;;;;30.60;19.07;;;;;;;;;;5029261;28;20049;-66
2022/01/15 09:35:37;;;;;;;31.27;18.42;;;;;;;;;;5024364;28;20472;-67
2022/01/15 09:38:03;;;;;;;33.38;19.05;;;;;;;;;;5019441;28;20163;-67
2022/01/15 09:40:28;;;;;;;30.45;19.33;;;;;;;;;;5024844;28;20026;-66
2022/01/15 09:42:54;;;;;;;31.17;18.85;;;;;;;;;;5024682;28;20037;-65
2022/01/15 09:45:20;;;;;;;31.33;18.73;;;;;;;;;;5029180;28;20025;-65
2022/01/15 09:47:45;;;;;;;29.95;18.13;;;;;;;;;;5025583;28;20044;-65
2022/01/15 09:50:12;;;;;;;30.50;18.95;;;;;;;;;;5020847;28;20018;-66
2022/01/15 09:52:38;;;;;;;29.50;18.15;;;;;;;;;;5018982;28;20075;-66
2022/01/15 09:55:09;;;;;;;35.60;19.70;;;;;;;;;;5031071;28;20025;-67
2022/01/15 09:57:34;;;;;;;30.20;18.23;;;;;;;;;;5030619;28;20060;-65
2022/01/15 10:00:01;;;;;;;31.10;19.15;;;;;;;;;;5024048;28;20022;-66
2022/01/15 10:02:26;;;;;;;28.98;17.88;;;;;;;;;;5030783;28;20029;-66
2022/01/15 10:04:51;;;;;;;31.20;17.83;;;;;;;;;;5027331;28;20512;-66
2022/01/15 10:07:20;;;;;;;32.63;19.38;;;;;;;;;;5030424;28;20053;-65
2022/01/15 10:09:45;;;;;;;29.13;18.10;;;;;;;;;;5025629;28;20127;-65
2022/01/15 10:12:11;;;;;;;32.90;19.00;;;;;;;;;;5030511;28;20442;-67
2022/01/15 10:14:37;;;;;;;29.58;16.85;;;;;;;;;;5024452;28;20098;-68
2022/01/15 10:17:03;;;;;;;31.73;18.07;;;;;;;;;;5021642;28;20030;-65
2022/01/15 10:19:33;;;;;;;33.77;18.50;;;;;;;;;;5029393;28;20132;-65
2022/01/15 10:22:08;;;;;;;33.88;20.63;;;;;;;;;;5029889;28;20030;-64
2022/01/15 10:24:33;;;;;;;37.42;22.27;;;;;;;;;;5026294;28;20030;-65
2022/01/15 10:27:22;;;;;;;36.37;21.43;;;;;;;;;;5030382;28;20056;-67
2022/01/15 10:29:48;;;;;;;38.93;22.63;;;;;;;;;;5007238;28;20038;-66
2022/01/15 10:32:13;;;;;;;40.92;22.20;;;;;;;;;;5002542;28;20384;-66
2022/01/15 10:34:45;;;;;;;39.25;23.27;;;;;;;;;;5007906;28;20931;-68
2022/01/15 10:37:14;;;;;;;40.03;23.02;;;;;;;;;;5007262;28;20033;-66
2022/01/15 10:39:40;;;;;;;38.53;22.90;;;;;;;;;;5007487;28;20030;-67
2022/01/15 10:42:13;;;;;;;43.58;25.50;;;;;;;;;;5006175;28;20117;-66
2022/01/15 10:44:38;;;;;;;50.25;27.52;;;;;;;;;;5006965;28;20049;-65
2022/01/15 10:47:05;;;;;;;49.13;28.10;;;;;;;;;;5006999;28;20042;-64
2022/01/15 10:49:30;;;;;;;53.23;29.17;;;;;;;;;;5006941;28;20037;-64
2022/01/15 10:52:10;;;;;;;55.70;29.70;;;;;;;;;;5007583;28;20543;-65
2022/01/15 10:54:54;;;;;;;51.73;28.07;;;;;;;;;;5006432;28;20052;-65
2022/01/15 10:57:21;;;;;;;63.50;30.97;;;;;;;;;;5007095;28;20123;-65
2022/01/15 10:59:58;;;;;;;66.27;31.20;;;;;;;;;;5006980;28;20061;-65
2022/01/15 11:02:24;;;;;;;67.10;31.97;;;;;;;;;;5006906;28;20034;-66
2022/01/15 11:04:49;;;;;;;72.20;33.00;;;;;;;;;;5006888;28;20079;-64
2022/01/15 11:07:15;;;;;;;70.90;34.13;;;;;;;;;;5017057;28;20053;-64
2022/01/15 11:09:44;;;;;;;75.40;33.60;;;;;;;;;;5019139;28;20028;-65
2022/01/15 11:12:09;;;;;;;75.85;32.90;;;;;;;;;;5028806;28;20033;-64
2022/01/15 11:14:35;;;;;;;68.97;30.43;;;;;;;;;;5029532;28;20056;-64
2022/01/15 11:17:00;;;;;;;60.07;27.80;;;;;;;;;;5023244;28;20104;-66
2022/01/15 11:19:27;;;;;;;59.80;22.87;;;;;;;;;;5029764;28;20329;-64
2022/01/15 11:21:53;;;;;;;59.23;25.70;;;;;;;;;;5029807;28;20026;-67
2022/01/15 11:24:19;;;;;;;59.27;24.47;;;;;;;;;;5030847;28;20063;-64
2022/01/15 11:26:44;;;;;;;70.50;24.83;;;;;;;;;;5024393;28;20029;-64
2022/01/15 11:29:10;;;;;;;63.47;24.73;;;;;;;;;;5030512;28;20021;-65
2022/01/15 11:31:36;;;;;;;60.13;25.20;;;;;;;;;;5030813;28;20033;-64
2022/01/15 11:34:02;;;;;;;53.83;23.10;;;;;;;;;;5021555;28;20029;-65
2022/01/15 11:36:38;;;;;;;54.43;24.00;;;;;;;;;;5018125;28;20057;-65
2022/01/15 11:39:05;;;;;;;46.80;21.08;;;;;;;;;;5025313;28;20021;-65
2022/01/15 11:41:30;;;;;;;50.53;21.67;;;;;;;;;;5018176;28;20333;-65
2022/01/15 11:43:56;;;;;;;53.50;21.90;;;;;;;;;;5025838;28;20033;-67
2022/01/15 11:46:26;;;;;;;45.00;19.97;;;;;;;;;;5015532;28;20480;-66
2022/01/15 11:48:51;;;;;;;51.07;21.23;;;;;;;;;;5026233;28;20415;-66
2022/01/15 11:51:18;;;;;;;48.28;20.90;;;;;;;;;;5028559;28;20087;-64
2022/01/15 11:53:51;;;;;;;52.38;21.95;;;;;;;;;;5028177;28;20029;-64
2022/01/15 11:56:16;;;;;;;51.33;22.55;;;;;;;;;;5024340;28;20157;-67
2022/01/15 11:58:42;;;;;;;47.95;21.92;;;;;;;;;;5024020;28;20056;-65
2022/01/15 12:01:07;;;;;;;47.87;20.73;;;;;;;;;;5023467;28;20113;-65
2022/01/15 12:03:38;;;;;;;46.67;21.23;;;;;;;;;;5029603;28;20036;-65
2022/01/15 12:06:03;;;;;;;43.70;21.10;;;;;;;;;;5021167;28;20568;-66
2022/01/15 12:08:30;;;;;;;47.58;21.15;;;;;;;;;;5029590;28;20108;-64
2022/01/15 12:10:56;;;;;;;46.97;20.10;;;;;;;;;;5030211;28;20070;-65
2022/01/15 12:13:41;;;;;;;45.22;20.55;;;;;;;;;;5023661;28;20103;-65
2022/01/15 12:16:21;;;;;;;46.50;21.20;;;;;;;;;;5028573;28;20083;-65
2022/01/15 12:18:48;;;;;;;45.75;19.45;;;;;;;;;;5025936;28;20101;-66
2022/01/15 12:21:33;;;;;;;47.17;21.20;;;;;;;;;;5025987;28;20028;-65
2022/01/15 12:24:18;;;;;;;48.60;21.88;;;;;;;;;;5023500;28;20324;-65
2022/01/15 12:27:00;;;;;;;51.03;21.38;;;;;;;;;;5027860;28;20076;-66
2022/01/15 12:29:25;;;;;;;50.50;20.52;;;;;;;;;;5027497;28;20051;-67
2022/01/15 12:31:50;;;;;;;52.17;22.77;;;;;;;;;;5026181;28;20025;-66
2022/01/15 12:34:23;;;;;;;55.58;22.77;;;;;;;;;;5026113;28;20029;-67
2022/01/15 12:36:48;;;;;;;58.28;21.77;;;;;;;;;;5021295;28;20080;-66
2022/01/15 12:39:14;;;;;;;70.75;21.73;;;;;;;;;;5026335;28;20041;-67
2022/01/15 12:41:39;;;;;;;73.03;22.05;;;;;;;;;;5020982;28;20029;-66
2022/01/15 12:44:04;;;;;;;71.95;23.65;;;;;;;;;;5025543;28;20010;-65
2022/01/15 12:46:29;;;;;;;67.53;22.83;;;;;;;;;;5027055;28;20385;-65
2022/01/15 12:48:54;;;;;;;80.07;24.58;;;;;;;;;;5026120;28;20037;-66
2022/01/15 12:51:21;;;;;;;78.78;24.90;;;;;;;;;;5028416;28;20100;-66
2022/01/15 12:53:48;;;;;;;70.35;24.98;;;;;;;;;;5028315;28;20095;-64
2022/01/15 12:56:15;;;;;;;80.10;25.13;;;;;;;;;;5023087;28;20160;-66
2022/01/15 12:58:41;;;;;;;55.92;22.67;;;;;;;;;;5022605;28;20031;-65
2022/01/15 13:01:09;;;;;;;57.63;22.17;;;;;;;;;;5019807;28;20188;-66
2022/01/15 13:03:35;;;;;;;46.23;20.40;;;;;;;;;;5025860;28;20104;-65
2022/01/15 13:06:01;;;;;;;44.00;20.20;;;;;;;;;;5023148;28;20288;-65
2022/01/15 13:08:36;;;;;;;54.55;24.10;;;;;;;;;;5031500;28;20140;-65
2022/01/15 13:13:38;;;;;;;66.45;22.73;;;;;;;;;;5031028;28;20036;-65
2022/01/15 13:16:14;;;;;;;61.63;22.17;;;;;;;;;;5029853;28;20451;-65
2022/01/15 13:18:43;;;;;;;72.57;24.42;;;;;;;;;;5031401;28;20029;-67
2022/01/15 13:21:08;;;;;;;;;;;;;;;;;;5031661;28;20484;-65
2022/01/15 13:23:35;;;;;;;84.10;23.07;;;;;;;;;;5028325;28;19913;-65
2022/01/15 13:26:01;;;;;;;59.00;22.80;;;;;;;;;;5018465;28;20380;-65
2022/01/15 13:28:26;;;;;;;80.82;24.13;;;;;;;;;;5027254;28;20132;-65
2022/01/15 13:30:51;;;;;;;77.70;25.42;;;;;;;;;;5027818;28;20053;-65
2022/01/15 13:33:17;;;;;;;62.42;22.42;;;;;;;;;;5023988;28;20487;-65
2022/01/15 13:35:43;;;;;;;63.53;22.80;;;;;;;;;;5021641;28;20029;-65
2022/01/15 13:38:09;;;;;;;80.68;24.63;;;;;;;;;;5022741;28;20035;-65
2022/01/15 13:40:37;;;;;;;105.72;27.23;;;;;;;;;;5030826;28;20472;-64
2022/01/15 13:43:03;;;;;;;92.77;26.00;;;;;;;;;;5029105;28;20018;-65
2022/01/15 13:45:33;;;;;;;90.33;25.37;;;;;;;;;;5030315;28;20033;-64
2022/01/15 13:48:12;;;;;;;81.53;25.23;;;;;;;;;;5029487;28;20049;-65
2022/01/15 13:53:28;;;;;;;79.65;27.42;;;;;;;;;;5027844;28;20443;-65
2022/01/15 13:56:07;;;;;;;82.28;25.38;;;;;;;;;;5022259;28;20451;-64
2022/01/15 13:58:32;;;;;;;76.30;22.60;;;;;;;;;;5030546;28;20168;-65
2022/01/15 14:01:13;;;;;;;86.33;27.00;;;;;;;;;;5027311;28;20120;-65
2022/01/15 14:03:38;;;;;;;84.10;26.80;;;;;;;;;;5027239;28;20496;-66
2022/01/15 14:06:04;;;;;;;74.27;25.23;;;;;;;;;;5028512;28;20068;-64
2022/01/15 14:08:29;;;;;;;80.33;26.70;;;;;;;;;;5026159;28;20045;-65
2022/01/15 14:10:54;;;;;;;115.53;26.97;;;;;;;;;;5028866;28;20025;-66
2022/01/15 14:13:29;;;;;;;91.10;25.92;;;;;;;;;;5020960;28;20022;-66
2022/01/15 14:15:54;;;;;;;152.38;28.58;;;;;;;;;;5028896;28;20036;-65
2022/01/15 14:18:29;;;;;;;131.50;29.08;;;;;;;;;;5022803;28;20029;-65
2022/01/15 14:21:17;;;;;;;130.60;27.90;;;;;;;;;;5025692;28;20136;-65
2022/01/15 14:23:41;;;;;;;103.93;26.23;;;;;;;;;;5027325;28;20025;-65
2022/01/15 14:26:17;;;;;;;96.53;26.83;;;;;;;;;;5027184;28;20384;-65
2022/01/15 14:28:42;;;;;;;91.30;27.57;;;;;;;;;;5021903;28;20570;-66
2022/01/15 14:31:07;;;;;;;90.43;28.33;;;;;;;;;;5028933;28;20064;-66
2022/01/15 14:33:33;;;;;;;63.60;22.70;;;;;;;;;;5028599;28;20021;-65
2022/01/15 14:35:59;;;;;;;84.65;25.20;;;;;;;;;;5024246;28;20025;-65
2022/01/15 14:38:24;;;;;;;62.53;23.05;;;;;;;;;;5025926;28;20029;-64
2022/01/15 14:40:50;;;;;;;70.93;23.08;;;;;;;;;;5018836;28;20021;-65
2022/01/15 14:43:15;;;;;;;69.13;23.55;;;;;;;;;;5025952;28;20426;-65